sensor_id;sensor_type;location;lat;lon;timestamp;P1;durP1;ratioP1;P2;durP2;ratioP2
22425;SDS011;11380;50.822;15.790;2023-05-17T00:02:40;55.28;;;49.88;;
22425;SDS011;11380;50.822;15.790;2023-05-17T00:07:47;55.53;;;50.13;;
22425;SDS011;11380;50.822;15.790;2023-05-17T00:12:55;55.10;;;49.73;;
22425;SDS011;11380;50.822;15.790;2023-05-17T00:18:02;55.03;;;49.77;;
22425;SDS011;11380;50.822;15.790;2023-05-17T00:23:09;55.87;;;50.47;;
22425;SDS011;11380;50.822;15.790;2023-05-17T00:28:17;55.53;;;49.97;;
22425;SDS011;11380;50.822;15.790;2023-05-17T00:33:24;55.07;;;49.67;;
22425;SDS011;11380;50.822;15.790;2023-05-17T00:38:32;55.30;;;49.87;;
22425;SDS011;11380;50.822;15.790;2023-05-17T00:48:45;55.60;;;49.87;;
22425;SDS011;11380;50.822;15.790;2023-05-17T00:53:52;55.00;;;49.50;;
22425;SDS011;11380;50.822;15.790;2023-05-17T00:59:01;55.73;;;50.20;;
22425;SDS011;11380;50.822;15.790;2023-05-17T01:04:09;54.87;;;49.47;;
22425;SDS011;11380;50.822;15.790;2023-05-17T01:09:17;55.87;;;50.27;;
22425;SDS011;11380;50.822;15.790;2023-05-17T01:19:56;55.40;;;49.90;;
22425;SDS011;11380;50.822;15.790;2023-05-17T01:25:33;55.17;;;49.83;;
22425;SDS011;11380;50.822;15.790;2023-05-17T01:30:57;55.23;;;49.93;;
22425;SDS011;11380;50.822;15.790;2023-05-17T01:36:08;54.88;;;49.58;;
22425;SDS011;11380;50.822;15.790;2023-05-17T01:46:42;54.55;;;49.33;;
22425;SDS011;11380;50.822;15.790;2023-05-17T01:57:28;54.88;;;49.67;;
22425;SDS011;11380;50.822;15.790;2023-05-17T02:02:40;55.67;;;50.20;;
22425;SDS011;11380;50.822;15.790;2023-05-17T02:07:48;55.75;;;50.43;;
22425;SDS011;11380;50.822;15.790;2023-05-17T02:12:57;54.70;;;49.40;;
22425;SDS011;11380;50.822;15.790;2023-05-17T02:18:04;53.77;;;48.67;;
22425;SDS011;11380;50.822;15.790;2023-05-17T02:23:11;54.70;;;49.40;;
22425;SDS011;11380;50.822;15.790;2023-05-17T02:28:20;53.80;;;48.70;;
22425;SDS011;11380;50.822;15.790;2023-05-17T02:33:27;53.60;;;48.50;;
22425;SDS011;11380;50.822;15.790;2023-05-17T02:38:34;53.90;;;48.60;;
22425;SDS011;11380;50.822;15.790;2023-05-17T02:43:43;53.75;;;48.65;;
22425;SDS011;11380;50.822;15.790;2023-05-17T02:48:50;53.73;;;48.37;;
22425;SDS011;11380;50.822;15.790;2023-05-17T02:53:57;54.20;;;48.83;;
22425;SDS011;11380;50.822;15.790;2023-05-17T02:59:05;53.27;;;48.27;;
22425;SDS011;11380;50.822;15.790;2023-05-17T03:04:12;52.83;;;48.00;;
22425;SDS011;11380;50.822;15.790;2023-05-17T03:09:19;53.93;;;48.43;;
22425;SDS011;11380;50.822;15.790;2023-05-17T03:14:26;52.80;;;47.73;;
22425;SDS011;11380;50.822;15.790;2023-05-17T03:19:34;52.23;;;47.53;;
22425;SDS011;11380;50.822;15.790;2023-05-17T03:24:42;53.33;;;48.13;;
22425;SDS011;11380;50.822;15.790;2023-05-17T03:29:49;52.90;;;47.90;;
22425;SDS011;11380;50.822;15.790;2023-05-17T03:34:57;52.53;;;47.53;;
22425;SDS011;11380;50.822;15.790;2023-05-17T03:40:04;51.57;;;46.80;;
22425;SDS011;11380;50.822;15.790;2023-05-17T03:45:12;52.20;;;47.23;;
22425;SDS011;11380;50.822;15.790;2023-05-17T03:50:20;52.17;;;47.27;;
22425;SDS011;11380;50.822;15.790;2023-05-17T03:55:27;52.67;;;47.70;;
22425;SDS011;11380;50.822;15.790;2023-05-17T04:00:34;51.97;;;47.27;;
22425;SDS011;11380;50.822;15.790;2023-05-17T04:05:41;52.08;;;47.33;;
22425;SDS011;11380;50.822;15.790;2023-05-17T04:10:49;52.27;;;47.37;;
22425;SDS011;11380;50.822;15.790;2023-05-17T04:15:57;52.07;;;47.37;;
22425;SDS011;11380;50.822;15.790;2023-05-17T04:21:06;51.63;;;47.03;;
22425;SDS011;11380;50.822;15.790;2023-05-17T04:26:13;52.27;;;47.57;;
22425;SDS011;11380;50.822;15.790;2023-05-17T04:31:27;51.27;;;46.77;;
22425;SDS011;11380;50.822;15.790;2023-05-17T04:36:30;51.04;;;46.46;;
22425;SDS011;11380;50.822;15.790;2023-05-17T04:41:38;52.53;;;47.47;;
22425;SDS011;11380;50.822;15.790;2023-05-17T04:46:45;52.13;;;47.20;;
22425;SDS011;11380;50.822;15.790;2023-05-17T04:51:53;52.00;;;47.10;;
22425;SDS011;11380;50.822;15.790;2023-05-17T04:57:00;52.37;;;47.47;;
22425;SDS011;11380;50.822;15.790;2023-05-17T05:02:07;52.80;;;47.73;;
22425;SDS011;11380;50.822;15.790;2023-05-17T05:07:16;52.83;;;47.83;;
22425;SDS011;11380;50.822;15.790;2023-05-17T05:12:24;53.13;;;47.73;;
22425;SDS011;11380;50.822;15.790;2023-05-17T05:17:32;53.20;;;47.83;;
22425;SDS011;11380;50.822;15.790;2023-05-17T05:22:40;52.45;;;47.70;;
22425;SDS011;11380;50.822;15.790;2023-05-17T05:27:47;52.83;;;47.93;;
22425;SDS011;11380;50.822;15.790;2023-05-17T05:32:54;53.70;;;48.30;;
22425;SDS011;11380;50.822;15.790;2023-05-17T05:38:02;52.97;;;47.67;;
22425;SDS011;11380;50.822;15.790;2023-05-17T05:43:09;52.70;;;47.70;;
22425;SDS011;11380;50.822;15.790;2023-05-17T05:48:16;52.27;;;47.17;;
22425;SDS011;11380;50.822;15.790;2023-05-17T05:53:25;53.77;;;48.50;;
22425;SDS011;11380;50.822;15.790;2023-05-17T05:58:32;52.55;;;47.27;;
22425;SDS011;11380;50.822;15.790;2023-05-17T06:03:40;53.52;;;48.20;;
22425;SDS011;11380;50.822;15.790;2023-05-17T06:08:49;52.77;;;47.93;;
22425;SDS011;11380;50.822;15.790;2023-05-17T06:13:56;53.20;;;47.93;;
22425;SDS011;11380;50.822;15.790;2023-05-17T06:19:03;53.23;;;48.08;;
22425;SDS011;11380;50.822;15.790;2023-05-17T06:24:12;52.27;;;47.43;;
22425;SDS011;11380;50.822;15.790;2023-05-17T06:29:20;52.70;;;47.53;;
22425;SDS011;11380;50.822;15.790;2023-05-17T06:34:27;53.07;;;47.90;;
22425;SDS011;11380;50.822;15.790;2023-05-17T06:39:37;52.88;;;47.80;;
22425;SDS011;11380;50.822;15.790;2023-05-17T06:44:47;52.63;;;47.67;;
22425;SDS011;11380;50.822;15.790;2023-05-17T06:49:56;53.30;;;47.93;;
22425;SDS011;11380;50.822;15.790;2023-05-17T06:55:03;52.73;;;47.80;;
22425;SDS011;11380;50.822;15.790;2023-05-17T07:00:11;53.00;;;47.90;;
22425;SDS011;11380;50.822;15.790;2023-05-17T07:05:20;53.63;;;48.33;;
22425;SDS011;11380;50.822;15.790;2023-05-17T07:10:29;53.10;;;48.20;;
22425;SDS011;11380;50.822;15.790;2023-05-17T07:15:37;53.50;;;48.50;;
22425;SDS011;11380;50.822;15.790;2023-05-17T07:20:45;53.90;;;48.67;;
22425;SDS011;11380;50.822;15.790;2023-05-17T07:25:52;54.53;;;49.20;;
22425;SDS011;11380;50.822;15.790;2023-05-17T07:36:07;54.77;;;49.30;;
22425;SDS011;11380;50.822;15.790;2023-05-17T07:41:15;54.27;;;49.03;;
22425;SDS011;11380;50.822;15.790;2023-05-17T07:46:24;54.20;;;48.97;;
22425;SDS011;11380;50.822;15.790;2023-05-17T07:51:33;54.80;;;49.40;;
22425;SDS011;11380;50.822;15.790;2023-05-17T07:56:40;55.53;;;49.83;;
22425;SDS011;11380;50.822;15.790;2023-05-17T08:01:47;55.33;;;49.73;;
22425;SDS011;11380;50.822;15.790;2023-05-17T08:06:54;54.63;;;49.33;;
22425;SDS011;11380;50.822;15.790;2023-05-17T08:12:03;56.07;;;50.40;;
22425;SDS011;11380;50.822;15.790;2023-05-17T08:17:10;56.33;;;50.57;;
22425;SDS011;11380;50.822;15.790;2023-05-17T08:22:17;56.17;;;50.37;;
22425;SDS011;11380;50.822;15.790;2023-05-17T08:27:25;56.37;;;50.58;;
22425;SDS011;11380;50.822;15.790;2023-05-17T08:32:33;56.43;;;50.57;;
22425;SDS011;11380;50.822;15.790;2023-05-17T08:37:43;56.40;;;50.60;;
22425;SDS011;11380;50.822;15.790;2023-05-17T08:42:50;56.18;;;50.23;;
22425;SDS011;11380;50.822;15.790;2023-05-17T08:47:59;56.33;;;50.33;;
22425;SDS011;11380;50.822;15.790;2023-05-17T08:53:08;55.87;;;50.27;;
22425;SDS011;11380;50.822;15.790;2023-05-17T08:58:18;55.85;;;50.15;;
22425;SDS011;11380;50.822;15.790;2023-05-17T09:03:28;56.30;;;50.67;;
22425;SDS011;11380;50.822;15.790;2023-05-17T09:08:37;56.47;;;50.67;;
22425;SDS011;11380;50.822;15.790;2023-05-17T09:13:45;55.77;;;50.13;;
22425;SDS011;11380;50.822;15.790;2023-05-17T09:18:54;55.87;;;50.03;;
22425;SDS011;11380;50.822;15.790;2023-05-17T09:24:02;56.67;;;50.77;;
22425;SDS011;11380;50.822;15.790;2023-05-17T09:29:12;56.23;;;50.23;;
22425;SDS011;11380;50.822;15.790;2023-05-17T09:34:23;56.30;;;50.33;;
22425;SDS011;11380;50.822;15.790;2023-05-17T09:39:30;56.43;;;50.43;;
22425;SDS011;11380;50.822;15.790;2023-05-17T09:44:47;56.40;;;50.53;;
22425;SDS011;11380;50.822;15.790;2023-05-17T09:49:58;56.10;;;50.50;;
22425;SDS011;11380;50.822;15.790;2023-05-17T09:55:11;56.47;;;50.33;;
22425;SDS011;11380;50.822;15.790;2023-05-17T10:00:19;55.60;;;49.90;;
22425;SDS011;11380;50.822;15.790;2023-05-17T10:05:27;55.75;;;49.95;;
22425;SDS011;11380;50.822;15.790;2023-05-17T10:10:36;56.23;;;50.37;;
22425;SDS011;11380;50.822;15.790;2023-05-17T10:15:45;55.80;;;49.93;;
22425;SDS011;11380;50.822;15.790;2023-05-17T10:20:54;55.73;;;50.03;;
22425;SDS011;11380;50.822;15.790;2023-05-17T10:26:01;56.10;;;50.27;;
22425;SDS011;11380;50.822;15.790;2023-05-17T10:31:09;56.13;;;50.43;;
22425;SDS011;11380;50.822;15.790;2023-05-17T10:36:17;56.50;;;50.55;;
22425;SDS011;11380;50.822;15.790;2023-05-17T10:41:32;56.10;;;50.30;;
22425;SDS011;11380;50.822;15.790;2023-05-17T10:46:40;56.43;;;50.40;;
22425;SDS011;11380;50.822;15.790;2023-05-17T10:52:16;56.73;;;51.00;;
22425;SDS011;11380;50.822;15.790;2023-05-17T10:57:33;56.50;;;50.70;;
22425;SDS011;11380;50.822;15.790;2023-05-17T11:02:43;55.95;;;50.15;;
22425;SDS011;11380;50.822;15.790;2023-05-17T11:07:52;56.40;;;50.40;;
22425;SDS011;11380;50.822;15.790;2023-05-17T11:13:26;55.83;;;49.98;;
22425;SDS011;11380;50.822;15.790;2023-05-17T11:19:10;56.83;;;50.57;;
22425;SDS011;11380;50.822;15.790;2023-05-17T11:23:56;56.03;;;50.17;;
22425;SDS011;11380;50.822;15.790;2023-05-17T11:29:06;56.50;;;50.53;;
22425;SDS011;11380;50.822;15.790;2023-05-17T11:34:14;56.40;;;50.60;;
22425;SDS011;11380;50.822;15.790;2023-05-17T11:39:23;56.83;;;50.87;;
22425;SDS011;11380;50.822;15.790;2023-05-17T11:44:30;56.50;;;50.63;;
22425;SDS011;11380;50.822;15.790;2023-05-17T11:49:41;57.87;;;51.77;;
22425;SDS011;11380;50.822;15.790;2023-05-17T11:59:58;56.63;;;50.63;;
22425;SDS011;11380;50.822;15.790;2023-05-17T12:05:09;56.73;;;50.67;;
22425;SDS011;11380;50.822;15.790;2023-05-17T12:10:17;56.75;;;50.85;;
22425;SDS011;11380;50.822;15.790;2023-05-17T12:15:25;57.20;;;51.20;;
22425;SDS011;11380;50.822;15.790;2023-05-17T12:20:36;56.70;;;50.70;;
22425;SDS011;11380;50.822;15.790;2023-05-17T12:25:43;57.70;;;51.50;;
22425;SDS011;11380;50.822;15.790;2023-05-17T12:30:53;57.90;;;51.67;;
22425;SDS011;11380;50.822;15.790;2023-05-17T12:36:02;57.27;;;51.17;;
22425;SDS011;11380;50.822;15.790;2023-05-17T12:41:10;57.78;;;51.34;;
22425;SDS011;11380;50.822;15.790;2023-05-17T12:46:21;56.80;;;50.80;;
22425;SDS011;11380;50.822;15.790;2023-05-17T12:51:34;56.83;;;50.93;;
22425;SDS011;11380;50.822;15.790;2023-05-17T12:56:48;58.20;;;51.70;;
22425;SDS011;11380;50.822;15.790;2023-05-17T13:01:57;57.20;;;51.10;;
22425;SDS011;11380;50.822;15.790;2023-05-17T13:07:04;60.17;;;51.03;;
22425;SDS011;11380;50.822;15.790;2023-05-17T13:12:17;57.24;;;51.04;;
22425;SDS011;11380;50.822;15.790;2023-05-17T13:17:35;56.50;;;50.60;;
22425;SDS011;11380;50.822;15.790;2023-05-17T13:22:46;57.98;;;51.58;;
22425;SDS011;11380;50.822;15.790;2023-05-17T13:27:54;57.50;;;51.40;;
22425;SDS011;11380;50.822;15.790;2023-05-17T13:33:02;57.43;;;51.37;;
22425;SDS011;11380;50.822;15.790;2023-05-17T13:38:10;57.50;;;51.40;;
22425;SDS011;11380;50.822;15.790;2023-05-17T13:43:17;57.53;;;51.33;;
22425;SDS011;11380;50.822;15.790;2023-05-17T13:48:25;57.55;;;51.35;;
22425;SDS011;11380;50.822;15.790;2023-05-17T13:53:32;57.53;;;51.33;;
22425;SDS011;11380;50.822;15.790;2023-05-17T13:58:40;57.57;;;51.33;;
22425;SDS011;11380;50.822;15.790;2023-05-17T14:03:47;57.83;;;51.53;;
22425;SDS011;11380;50.822;15.790;2023-05-17T14:08:55;59.33;;;51.07;;
22425;SDS011;11380;50.822;15.790;2023-05-17T14:14:03;57.27;;;51.27;;
22425;SDS011;11380;50.822;15.790;2023-05-17T14:19:11;58.80;;;51.50;;
22425;SDS011;11380;50.822;15.790;2023-05-17T14:24:19;57.33;;;50.40;;
22425;SDS011;11380;50.822;15.790;2023-05-17T14:29:26;57.17;;;51.15;;
22425;SDS011;11380;50.822;15.790;2023-05-17T14:34:35;58.73;;;50.90;;
22425;SDS011;11380;50.822;15.790;2023-05-17T14:39:42;56.60;;;50.47;;
22425;SDS011;11380;50.822;15.790;2023-05-17T14:44:51;57.37;;;50.33;;
22425;SDS011;11380;50.822;15.790;2023-05-17T14:49:59;56.70;;;50.60;;
22425;SDS011;11380;50.822;15.790;2023-05-17T14:55:06;57.17;;;51.17;;
22425;SDS011;11380;50.822;15.790;2023-05-17T15:00:13;59.37;;;51.13;;
22425;SDS011;11380;50.822;15.790;2023-05-17T15:05:21;56.93;;;50.90;;
22425;SDS011;11380;50.822;15.790;2023-05-17T15:10:28;56.77;;;50.87;;
22425;SDS011;11380;50.822;15.790;2023-05-17T15:15:35;56.70;;;50.67;;
22425;SDS011;11380;50.822;15.790;2023-05-17T15:20:44;56.90;;;50.90;;
22425;SDS011;11380;50.822;15.790;2023-05-17T15:25:51;56.70;;;50.60;;
22425;SDS011;11380;50.822;15.790;2023-05-17T15:31:02;56.60;;;50.67;;
22425;SDS011;11380;50.822;15.790;2023-05-17T15:36:15;57.57;;;51.27;;
22425;SDS011;11380;50.822;15.790;2023-05-17T15:41:22;61.53;;;52.10;;
22425;SDS011;11380;50.822;15.790;2023-05-17T15:46:32;57.90;;;50.73;;
22425;SDS011;11380;50.822;15.790;2023-05-17T15:56:45;57.77;;;51.63;;
22425;SDS011;11380;50.822;15.790;2023-05-17T16:01:52;56.57;;;50.60;;
22425;SDS011;11380;50.822;15.790;2023-05-17T16:12:05;56.58;;;50.45;;
22425;SDS011;11380;50.822;15.790;2023-05-17T16:17:14;57.13;;;51.10;;
22425;SDS011;11380;50.822;15.790;2023-05-17T16:22:22;56.73;;;50.73;;
22425;SDS011;11380;50.822;15.790;2023-05-17T16:27:29;56.60;;;50.67;;
22425;SDS011;11380;50.822;15.790;2023-05-17T16:32:36;55.73;;;49.93;;
22425;SDS011;11380;50.822;15.790;2023-05-17T16:37:43;58.33;;;50.70;;
22425;SDS011;11380;50.822;15.790;2023-05-17T16:42:51;56.63;;;50.60;;
22425;SDS011;11380;50.822;15.790;2023-05-17T16:47:59;57.13;;;51.10;;
22425;SDS011;11380;50.822;15.790;2023-05-17T16:53:09;57.20;;;51.10;;
22425;SDS011;11380;50.822;15.790;2023-05-17T16:58:17;57.33;;;50.73;;
22425;SDS011;11380;50.822;15.790;2023-05-17T17:03:25;59.70;;;51.08;;
22425;SDS011;11380;50.822;15.790;2023-05-17T17:08:32;56.80;;;50.90;;
22425;SDS011;11380;50.822;15.790;2023-05-17T17:13:39;66.27;;;53.23;;
22425;SDS011;11380;50.822;15.790;2023-05-17T17:18:48;60.90;;;52.33;;
22425;SDS011;11380;50.822;15.790;2023-05-17T17:23:56;60.17;;;53.20;;
22425;SDS011;11380;50.822;15.790;2023-05-17T17:29:03;62.27;;;53.30;;
22425;SDS011;11380;50.822;15.790;2023-05-17T17:34:12;58.10;;;51.90;;
22425;SDS011;11380;50.822;15.790;2023-05-17T17:39:19;60.08;;;51.92;;
22425;SDS011;11380;50.822;15.790;2023-05-17T17:44:27;60.30;;;52.88;;
22425;SDS011;11380;50.822;15.790;2023-05-17T17:49:34;61.13;;;52.77;;
22425;SDS011;11380;50.822;15.790;2023-05-17T17:54:41;61.13;;;53.63;;
22425;SDS011;11380;50.822;15.790;2023-05-17T17:59:49;61.97;;;53.67;;
22425;SDS011;11380;50.822;15.790;2023-05-17T18:04:56;76.40;;;58.67;;
22425;SDS011;11380;50.822;15.790;2023-05-17T18:10:04;64.70;;;55.07;;
22425;SDS011;11380;50.822;15.790;2023-05-17T18:15:11;58.00;;;51.83;;
22425;SDS011;11380;50.822;15.790;2023-05-17T18:20:19;57.88;;;51.70;;
22425;SDS011;11380;50.822;15.790;2023-05-17T18:25:27;57.23;;;51.33;;
22425;SDS011;11380;50.822;15.790;2023-05-17T18:30:34;57.40;;;51.13;;
22425;SDS011;11380;50.822;15.790;2023-05-17T18:35:42;106.90;;;71.60;;
22425;SDS011;11380;50.822;15.790;2023-05-17T18:40:50;74.53;;;58.67;;
22425;SDS011;11380;50.822;15.790;2023-05-17T18:45:58;59.20;;;52.13;;
22425;SDS011;11380;50.822;15.790;2023-05-17T18:51:07;57.70;;;50.77;;
22425;SDS011;11380;50.822;15.790;2023-05-17T18:56:14;58.93;;;50.00;;
22425;SDS011;11380;50.822;15.790;2023-05-17T19:01:25;56.40;;;49.83;;
22425;SDS011;11380;50.822;15.790;2023-05-17T19:06:34;55.73;;;49.60;;
22425;SDS011;11380;50.822;15.790;2023-05-17T19:11:43;55.20;;;49.47;;
22425;SDS011;11380;50.822;15.790;2023-05-17T19:16:52;58.87;;;51.20;;
22425;SDS011;11380;50.822;15.790;2023-05-17T19:22:00;55.60;;;49.67;;
22425;SDS011;11380;50.822;15.790;2023-05-17T19:27:09;56.97;;;50.87;;
22425;SDS011;11380;50.822;15.790;2023-05-17T19:32:17;55.87;;;50.33;;
22425;SDS011;11380;50.822;15.790;2023-05-17T19:37:27;55.35;;;49.75;;
22425;SDS011;11380;50.822;15.790;2023-05-17T19:42:34;55.43;;;49.87;;
22425;SDS011;11380;50.822;15.790;2023-05-17T19:47:42;55.97;;;50.27;;
22425;SDS011;11380;50.822;15.790;2023-05-17T19:52:50;55.77;;;50.07;;
22425;SDS011;11380;50.822;15.790;2023-05-17T19:57:58;57.87;;;51.03;;
22425;SDS011;11380;50.822;15.790;2023-05-17T20:03:06;56.63;;;50.93;;
22425;SDS011;11380;50.822;15.790;2023-05-17T20:08:13;55.74;;;49.84;;
22425;SDS011;11380;50.822;15.790;2023-05-17T20:13:20;55.60;;;49.97;;
22425;SDS011;11380;50.822;15.790;2023-05-17T20:18:28;55.63;;;50.03;;
22425;SDS011;11380;50.822;15.790;2023-05-17T20:23:36;55.70;;;50.03;;
22425;SDS011;11380;50.822;15.790;2023-05-17T20:38:58;55.83;;;50.05;;
22425;SDS011;11380;50.822;15.790;2023-05-17T20:44:05;57.17;;;51.07;;
22425;SDS011;11380;50.822;15.790;2023-05-17T20:49:12;55.70;;;50.00;;
22425;SDS011;11380;50.822;15.790;2023-05-17T20:54:21;56.63;;;50.78;;
22425;SDS011;11380;50.822;15.790;2023-05-17T20:59:30;56.90;;;51.17;;
22425;SDS011;11380;50.822;15.790;2023-05-17T21:04:37;57.30;;;51.17;;
22425;SDS011;11380;50.822;15.790;2023-05-17T21:09:45;57.47;;;51.57;;
22425;SDS011;11380;50.822;15.790;2023-05-17T21:14:54;57.50;;;51.53;;
22425;SDS011;11380;50.822;15.790;2023-05-17T21:20:03;57.37;;;51.40;;
22425;SDS011;11380;50.822;15.790;2023-05-17T21:25:11;57.60;;;51.67;;
22425;SDS011;11380;50.822;15.790;2023-05-17T21:30:18;57.43;;;51.63;;
22425;SDS011;11380;50.822;15.790;2023-05-17T21:35:25;58.02;;;52.10;;
22425;SDS011;11380;50.822;15.790;2023-05-17T21:40:33;57.87;;;51.77;;
22425;SDS011;11380;50.822;15.790;2023-05-17T21:45:42;56.87;;;51.00;;
22425;SDS011;11380;50.822;15.790;2023-05-17T21:50:49;55.60;;;50.30;;
22425;SDS011;11380;50.822;15.790;2023-05-17T21:56:05;57.80;;;51.57;;
22425;SDS011;11380;50.822;15.790;2023-05-17T22:06:20;57.03;;;51.33;;
22425;SDS011;11380;50.822;15.790;2023-05-17T22:11:27;56.58;;;50.88;;
22425;SDS011;11380;50.822;15.790;2023-05-17T22:16:36;57.90;;;52.17;;
22425;SDS011;11380;50.822;15.790;2023-05-17T22:21:44;57.83;;;52.10;;
22425;SDS011;11380;50.822;15.790;2023-05-17T22:26:51;57.00;;;51.15;;
22425;SDS011;11380;50.822;15.790;2023-05-17T22:31:58;57.13;;;51.07;;
22425;SDS011;11380;50.822;15.790;2023-05-17T22:37:11;56.80;;;51.20;;
22425;SDS011;11380;50.822;15.790;2023-05-17T22:42:15;56.42;;;50.85;;
22425;SDS011;11380;50.822;15.790;2023-05-17T22:47:22;57.45;;;51.70;;
22425;SDS011;11380;50.822;15.790;2023-05-17T22:52:30;56.63;;;51.03;;
22425;SDS011;11380;50.822;15.790;2023-05-17T23:02:43;56.60;;;50.90;;
22425;SDS011;11380;50.822;15.790;2023-05-17T23:07:50;56.60;;;50.97;;
22425;SDS011;11380;50.822;15.790;2023-05-17T23:12:57;55.83;;;50.23;;
22425;SDS011;11380;50.822;15.790;2023-05-17T23:18:04;56.37;;;50.77;;
22425;SDS011;11380;50.822;15.790;2023-05-17T23:23:11;56.17;;;50.40;;
22425;SDS011;11380;50.822;15.790;2023-05-17T23:28:19;55.08;;;49.58;;
22425;SDS011;11380;50.822;15.790;2023-05-17T23:33:28;56.40;;;50.67;;
22425;SDS011;11380;50.822;15.790;2023-05-17T23:38:37;55.83;;;50.37;;
22425;SDS011;11380;50.822;15.790;2023-05-17T23:43:44;55.93;;;50.17;;
22425;SDS011;11380;50.822;15.790;2023-05-17T23:48:51;56.70;;;51.13;;
22425;SDS011;11380;50.822;15.790;2023-05-17T23:53:59;57.20;;;51.03;;
22425;SDS011;11380;50.822;15.790;2023-05-17T23:59:06;56.27;;;50.77;;
